Pagina principală
METAR-TAF:

METAR-TAF

Aeroporturi :

Northwest Arkansas Regional Airport

Fayetteville, Arkansas, Statele Unite ale Americii

Latitudine: 36-16-55N, longitudine: 094-18-25W, elevație: 392 m

Observații meteo curente

Raportul a fost făcut în urmă cu 29 de minute, la 04:53 UTC
Vânt calm
Temperatură 18°C
Umiditate 88%
Presiune 1015 hPa
Vizibilitate: 16.1 km
Cer senin

METAR: KXNA 190453Z AUTO 00000KT 10SM CLR 18/16 A2998 RMK AO2 SLP139 T01830161

Ora: 00:22 (05:22 UTC)

Prognoză

Raportul a fost făcut în urmă cu 6 ore și 1 de minute, la 23:21 UTC
Prognoză valabilă de la 19 ora 00 UTC la 19 ora 24 UTC
Vânt kt de la Nord
Vizibilitate: 10 km
Cer senin
Temporar
de la 19 ora 09 UTC la 19 ora 13 UTC
Vizibilitate: 3.2 km
aer cețos
De la 19 ora 1600 UTC
Vânt 9 kt de la Sud
Vizibilitate: 10 km
Nori împrăștiați la o înălțime de 4000 picior

TAF: KXNA 182321Z 1900/1924 00000KT P6SM SKC TEMPO 1909/1913 2SM BR FM191600 18009KT P6SM SCT040

Observații și prognoze meteo pentru peste 4.000 de aeroporturi (rapoarte METAR și TAF).

Stațiile disponibile sunt reprezentate pe hartă prin puncte galbene și roșii.

Țineți indicatorul mouse-ului pe punctul dorit pentru a vedea denumirea stației.

Apoi, faceți clic pentru a vedea observațiile și prognozele meteorologice.

Pentru a schimba harta: Pentru mărire, faceți clic pe butoanele verzi cu cruce neagră; pentru micșorare, pe butonul verde cu o liniuță; pentru hărți învecinate, pe săgețile verzi.


METAR-TAF: